Prince Of Seas — A8JI5 — position and weather

sailwx.info

Track history (hours):
 
Tides and Currents Weather Stations Pressure Air Temp Water Temp Dewpoint Dewpoint Depression Visibility Wind Speed Wind Dir Waves Ship Positions

Prince Of Seas

Last reported at 2014-Nov-22 12:23 UTC. Time now 2014-Nov-24 16:33 UTC.
Position N 27°35' W 083°05'.

Length 131 m; beam 19 m.

Type: Ship. MMSI: 636091098.

Date/timePositionNaut miles runAvg speedWind from/ knotsBaromVisibWave heightAir tempDewpointWater temp
2014-Nov-22 12:23N 27°35' W 083°05'1315.0
2014-Nov-22 11:33N 27°36' W 082°51'1312.6
2014-Nov-22 10:33N 27°39' W 082°37'3 3.1
2014-Nov-22 09:33N 27°38' W 082°34'0 0.0
2014-Nov-22 08:33N 27°38' W 082°34'0 0.0
2014-Nov-22 07:33N 27°38' W 082°34'0 0.0
2014-Nov-22 06:33N 27°38' W 082°34'0 0.0
2014-Nov-22 05:31N 27°38' W 082°34'0 0.0
2014-Nov-22 04:31N 27°38' W 082°34'0 0.0
2014-Nov-22 03:32N 27°38' W 082°34'0 0.0
2014-Nov-22 02:33N 27°38' W 082°34'0 0.0
2014-Nov-22 01:33N 27°38' W 082°34'0 0.0
2014-Nov-22 00:33N 27°38' W 082°34'0 0.3
2014-Nov-21 23:33N 27°38' W 082°34'8 7.8
2014-Nov-21 22:33N 27°36' W 082°42'8 7.8
2014-Nov-21 21:33N 27°36' W 082°51'1111.3
2014-Nov-21 20:34N 27°35' W 083°04'  
2014-Nov-16 08:33N 27°36' W 082°58'1515.0
2014-Nov-16 07:34N 27°37' W 082°41'7 7.2
2014-Nov-16 06:33N 27°38' W 082°34'0 0.0
2014-Nov-16 05:33N 27°38' W 082°34'0 0.0
2014-Nov-16 04:34N 27°38' W 082°34'0 0.0
2014-Nov-16 03:33N 27°38' W 082°34'0 0.0
2014-Nov-16 02:34N 27°38' W 082°34'0 0.0
2014-Nov-16 01:34N 27°38' W 082°34'0 0.0
2014-Nov-16 00:33N 27°38' W 082°34'0 0.0
2014-Nov-15 23:34N 27°38' W 082°34'0 0.0
2014-Nov-15 22:34N 27°38' W 082°34'0 0.0
2014-Nov-15 21:34N 27°38' W 082°34'0 0.0
2014-Nov-15 20:34N 27°38' W 082°34'3 2.5
2014-Nov-15 19:34N 27°39' W 082°36'1312.9
2014-Nov-15 18:33N 27°36' W 082°50'1110.4
2014-Nov-15 17:33N 27°37' W 083°02'1 0.7
2014-Nov-15 16:34N 27°36' W 083°02'3 2.5
2014-Nov-15 15:30N 27°37' W 083°04'0 0.0
2014-Nov-15 14:27N 27°37' W 083°04'0 0.0
2014-Nov-15 13:33N 27°37' W 083°04'0 0.0
2014-Nov-15 12:33N 27°37' W 083°04'0 0.0
2014-Nov-15 11:33N 27°37' W 083°04'0 0.0
2014-Nov-15 10:33N 27°37' W 083°04'0 0.0
2014-Nov-15 09:33N 27°37' W 083°04'0 0.0
2014-Nov-15 08:33N 27°37' W 083°04'0 0.0
2014-Nov-15 07:33N 27°37' W 083°04'0 0.0
2014-Nov-15 06:33N 27°37' W 083°04'0 0.0
2014-Nov-15 05:33N 27°37' W 083°04'0 0.0
2014-Nov-15 04:30N 27°37' W 083°04'0 0.0
2014-Nov-15 03:30N 27°37' W 083°04'0 0.0
2014-Nov-15 02:30N 27°37' W 083°04'0 0.0
2014-Nov-15 01:33N 27°37' W 083°04'0 0.0
2014-Nov-15 00:27N 27°37' W 083°04'0 0.0
2014-Nov-14 23:33N 27°37' W 083°04'0 0.0
2014-Nov-14 22:33N 27°37' W 083°04'0 0.0
2014-Nov-14 21:33N 27°37' W 083°04'0 0.0
2014-Nov-14 20:30N 27°37' W 083°04'3 3.6
2014-Nov-14 19:32N 27°36' W 083°01'1 0.8
2014-Nov-14 18:33N 27°36' W 083°01'7 6.3
2014-Nov-14 17:29N 27°34' W 083°09'  
Track history (hours):
 
Tides and Currents Weather Stations Pressure Air Temp Water Temp Dewpoint Dewpoint Depression Visibility Wind Speed Wind Dir Waves Ship Positions

Prince Of Seas

Last reported at 2014-Nov-22 12:23 UTC. Time now 2014-Nov-24 16:33 UTC.
Position N 27°35' W 083°05'.

Length 131 m; beam 19 m.

Type: Ship. MMSI: 636091098.

Date/timePositionNaut miles runAvg speedWind from/ knotsBaromVisibWave heightAir tempDewpointWater temp
2014-Nov-22 12:23N 27°35' W 083°05'1315.0
2014-Nov-22 11:33N 27°36' W 082°51'1312.6
2014-Nov-22 10:33N 27°39' W 082°37'3 3.1
2014-Nov-22 09:33N 27°38' W 082°34'0 0.0
2014-Nov-22 08:33N 27°38' W 082°34'0 0.0
2014-Nov-22 07:33N 27°38' W 082°34'0 0.0
2014-Nov-22 06:33N 27°38' W 082°34'0 0.0
2014-Nov-22 05:31N 27°38' W 082°34'0 0.0
2014-Nov-22 04:31N 27°38' W 082°34'0 0.0
2014-Nov-22 03:32N 27°38' W 082°34'0 0.0
2014-Nov-22 02:33N 27°38' W 082°34'0 0.0
2014-Nov-22 01:33N 27°38' W 082°34'0 0.0
2014-Nov-22 00:33N 27°38' W 082°34'0 0.3
2014-Nov-21 23:33N 27°38' W 082°34'8 7.8
2014-Nov-21 22:33N 27°36' W 082°42'8 7.8
2014-Nov-21 21:33N 27°36' W 082°51'1111.3
2014-Nov-21 20:34N 27°35' W 083°04'  
2014-Nov-16 08:33N 27°36' W 082°58'1515.0
2014-Nov-16 07:34N 27°37' W 082°41'7 7.2
2014-Nov-16 06:33N 27°38' W 082°34'0 0.0
2014-Nov-16 05:33N 27°38' W 082°34'0 0.0
2014-Nov-16 04:34N 27°38' W 082°34'0 0.0
2014-Nov-16 03:33N 27°38' W 082°34'0 0.0
2014-Nov-16 02:34N 27°38' W 082°34'0 0.0
2014-Nov-16 01:34N 27°38' W 082°34'0 0.0
2014-Nov-16 00:33N 27°38' W 082°34'0 0.0
2014-Nov-15 23:34N 27°38' W 082°34'0 0.0
2014-Nov-15 22:34N 27°38' W 082°34'0 0.0
2014-Nov-15 21:34N 27°38' W 082°34'0 0.0
2014-Nov-15 20:34N 27°38' W 082°34'3 2.5
2014-Nov-15 19:34N 27°39' W 082°36'1312.9
2014-Nov-15 18:33N 27°36' W 082°50'1110.4
2014-Nov-15 17:33N 27°37' W 083°02'1 0.7
2014-Nov-15 16:34N 27°36' W 083°02'3 2.5
2014-Nov-15 15:30N 27°37' W 083°04'0 0.0
2014-Nov-15 14:27N 27°37' W 083°04'0 0.0
2014-Nov-15 13:33N 27°37' W 083°04'0 0.0
2014-Nov-15 12:33N 27°37' W 083°04'0 0.0
2014-Nov-15 11:33N 27°37' W 083°04'0 0.0
2014-Nov-15 10:33N 27°37' W 083°04'0 0.0
2014-Nov-15 09:33N 27°37' W 083°04'0 0.0
2014-Nov-15 08:33N 27°37' W 083°04'0 0.0
2014-Nov-15 07:33N 27°37' W 083°04'0 0.0
2014-Nov-15 06:33N 27°37' W 083°04'0 0.0
2014-Nov-15 05:33N 27°37' W 083°04'0 0.0
2014-Nov-15 04:30N 27°37' W 083°04'0 0.0
2014-Nov-15 03:30N 27°37' W 083°04'0 0.0
2014-Nov-15 02:30N 27°37' W 083°04'0 0.0
2014-Nov-15 01:33N 27°37' W 083°04'0 0.0
2014-Nov-15 00:27N 27°37' W 083°04'0 0.0
2014-Nov-14 23:33N 27°37' W 083°04'0 0.0
2014-Nov-14 22:33N 27°37' W 083°04'0 0.0
2014-Nov-14 21:33N 27°37' W 083°04'0 0.0
2014-Nov-14 20:30N 27°37' W 083°04'3 3.6
2014-Nov-14 19:32N 27°36' W 083°01'1 0.8
2014-Nov-14 18:33N 27°36' W 083°01'7 6.3
2014-Nov-14 17:29N 27°34' W 083°09'  

Dump ship's entire track history